createdAt,value
2018-04-01T00:00:09.009Z,9.20
2018-04-01T00:02:34.973Z,9.12
2018-04-01T00:05:00.913Z,9.04
2018-04-01T00:07:26.886Z,9.02
2018-04-01T00:09:52.814Z,9.20
2018-04-01T00:12:18.744Z,9.09
2018-04-01T00:14:44.685Z,9.12
2018-04-01T00:17:10.601Z,9.09
2018-04-01T00:19:36.545Z,8.65
2018-04-01T00:22:02.480Z,9.16
2018-04-01T00:24:28.419Z,9.01
2018-04-01T00:26:54.353Z,9.10
2018-04-01T00:29:20.327Z,9.10
2018-04-01T00:31:46.281Z,9.06
2018-04-01T00:34:12.257Z,9.12
2018-04-01T00:36:38.197Z,8.88
2018-04-01T00:39:04.133Z,9.11
2018-04-01T00:41:30.077Z,8.98
2018-04-01T00:43:56.009Z,8.97
2018-04-01T00:46:21.990Z,9.27
2018-04-01T00:48:47.932Z,9.10
2018-04-01T00:51:13.873Z,9.17
2018-04-01T00:53:39.808Z,9.21
2018-04-01T00:56:05.732Z,9.23
2018-04-01T00:58:31.705Z,9.15
2018-04-01T01:00:57.635Z,8.84
2018-04-01T01:03:23.549Z,9.01
2018-04-01T01:05:49.487Z,8.92
2018-04-01T01:08:15.411Z,9.02
2018-04-01T01:10:41.391Z,9.25
2018-04-01T01:13:07.335Z,9.10
2018-04-01T01:15:33.295Z,9.22
2018-04-01T01:17:59.287Z,9.02
2018-04-01T01:20:25.167Z,8.78
2018-04-01T01:22:51.107Z,9.19
2018-04-01T01:25:17.055Z,9.23
2018-04-01T01:27:42.973Z,8.92
2018-04-01T01:30:08.890Z,9.18
2018-04-01T01:32:34.858Z,9.26
2018-04-01T01:35:00.805Z,9.07
2018-04-01T01:37:26.770Z,9.17
2018-04-01T01:39:52.725Z,9.25
2018-04-01T01:42:18.672Z,9.06
2018-04-01T01:44:44.618Z,8.89
2018-04-01T01:47:10.557Z,9.00
2018-04-01T01:49:36.509Z,9.12
2018-04-01T01:52:02.457Z,8.98
2018-04-01T01:54:28.510Z,8.89
2018-04-01T01:56:54.449Z,9.04
2018-04-01T01:59:20.377Z,9.04
2018-04-01T02:01:46.313Z,9.09
2018-04-01T02:04:12.258Z,9.08
2018-04-01T02:06:38.170Z,9.19
2018-04-01T02:09:04.112Z,8.90
2018-04-01T02:11:30.062Z,8.91
2018-04-01T02:13:56.010Z,8.93
2018-04-01T02:16:21.956Z,8.85
2018-04-01T02:18:47.915Z,8.74
2018-04-01T02:21:13.868Z,9.01
2018-04-01T02:23:40.150Z,9.09
2018-04-01T02:26:06.081Z,9.02
2018-04-01T02:28:32.021Z,9.16
2018-04-01T02:30:57.987Z,9.04
2018-04-01T02:33:23.914Z,8.79
2018-04-01T02:35:49.859Z,8.92
2018-04-01T02:38:15.811Z,8.58
2018-04-01T02:40:41.737Z,8.70
2018-04-01T02:43:07.681Z,8.75
2018-04-01T02:45:33.633Z,8.63
2018-04-01T02:47:59.571Z,8.95
2018-04-01T02:50:25.506Z,9.15
2018-04-01T02:52:51.467Z,8.85
2018-04-01T02:55:17.540Z,8.68
2018-04-01T02:57:43.459Z,8.61
2018-04-01T03:00:09.403Z,8.70
2018-04-01T03:02:35.319Z,8.68
2018-04-01T03:05:01.243Z,8.57
2018-04-01T03:07:27.158Z,8.63
2018-04-01T03:09:53.106Z,8.46
2018-04-01T03:12:19.059Z,8.87
2018-04-01T03:14:44.978Z,8.88
2018-04-01T03:17:10.908Z,8.65
2018-04-01T03:19:36.855Z,8.18
2018-04-01T03:22:02.803Z,8.28
2018-04-01T03:24:28.728Z,8.43
2018-04-01T03:26:54.692Z,8.74
2018-04-01T03:29:20.635Z,8.87
2018-04-01T03:31:46.576Z,8.59
2018-04-01T03:34:12.515Z,8.62
2018-04-01T03:36:38.445Z,8.73
2018-04-01T03:39:04.404Z,8.76
2018-04-01T03:41:30.362Z,8.61
2018-04-01T03:43:56.281Z,8.62
2018-04-01T03:46:22.313Z,8.77
2018-04-01T03:48:48.232Z,8.72
2018-04-01T03:51:14.297Z,8.76
2018-04-01T03:53:40.225Z,8.60
2018-04-01T03:56:06.157Z,8.53
2018-04-01T03:58:32.101Z,8.57
2018-04-01T04:00:58.025Z,8.51
2018-04-01T04:03:23.962Z,8.69
2018-04-01T04:05:49.879Z,8.46
2018-04-01T04:08:15.833Z,8.45
2018-04-01T04:10:41.775Z,8.41
2018-04-01T04:13:07.713Z,8.36
2018-04-01T04:15:33.636Z,8.46
2018-04-01T04:17:59.613Z,8.47
2018-04-01T04:20:25.551Z,8.49
2018-04-01T04:22:51.479Z,8.60
2018-04-01T04:25:17.401Z,8.40
2018-04-01T04:27:43.324Z,8.27
2018-04-01T04:30:09.281Z,8.43
2018-04-01T04:32:35.263Z,8.58
2018-04-01T04:35:01.227Z,8.43
2018-04-01T04:37:27.155Z,8.18
2018-04-01T04:39:53.098Z,8.69
2018-04-01T04:42:19.039Z,8.35
2018-04-01T04:44:45.001Z,8.17
2018-04-01T04:47:10.951Z,8.39
2018-04-01T04:49:36.996Z,8.52
2018-04-01T04:52:02.917Z,8.30
2018-04-01T04:54:28.863Z,8.57
2018-04-01T04:56:54.787Z,8.46
2018-04-01T04:59:20.711Z,8.41
2018-04-01T05:01:46.645Z,8.37
2018-04-01T05:04:12.599Z,8.40
2018-04-01T05:06:38.545Z,8.46
2018-04-01T05:09:04.457Z,8.25
2018-04-01T05:11:30.393Z,8.17
2018-04-01T05:13:56.363Z,8.36
2018-04-01T05:16:22.292Z,8.17
2018-04-01T05:18:48.261Z,8.56
2018-04-01T05:21:14.260Z,8.33
2018-04-01T05:23:40.303Z,8.28
2018-04-01T05:26:06.269Z,8.58
2018-04-01T05:28:32.201Z,8.41
2018-04-01T05:30:58.170Z,8.25
2018-04-01T05:33:24.093Z,8.37
2018-04-01T05:35:50.062Z,8.65
2018-04-01T05:38:15.989Z,8.17
2018-04-01T05:40:41.975Z,8.23
2018-04-01T05:43:07.939Z,8.53
2018-04-01T05:45:33.863Z,8.49
2018-04-01T05:47:59.818Z,8.11
2018-04-01T05:50:25.789Z,8.25
2018-04-01T05:52:51.745Z,8.31
2018-04-01T05:55:17.806Z,8.48
2018-04-01T05:57:43.724Z,8.43
2018-04-01T06:00:09.730Z,8.50
2018-04-01T06:02:35.673Z,8.36
2018-04-01T06:05:01.629Z,8.41
2018-04-01T06:07:27.607Z,8.34
2018-04-01T06:09:53.521Z,8.29
2018-04-01T06:12:19.528Z,8.42
2018-04-01T06:14:45.456Z,8.30
2018-04-01T06:17:11.422Z,8.29
2018-04-01T06:19:37.404Z,8.26
2018-04-01T06:22:03.338Z,8.36
2018-04-01T06:24:29.350Z,8.25
2018-04-01T06:26:55.296Z,8.28
2018-04-01T06:29:21.258Z,8.27
2018-04-01T06:31:47.177Z,8.02
2018-04-01T06:34:13.093Z,8.30
2018-04-01T06:36:39.019Z,8.48
2018-04-01T06:39:04.944Z,8.65
2018-04-01T06:41:30.898Z,8.65
2018-04-01T06:43:56.817Z,8.46
2018-04-01T06:46:22.862Z,8.61
2018-04-01T06:48:48.813Z,8.48
2018-04-01T06:51:14.790Z,8.78
2018-04-01T06:53:40.745Z,8.95
2018-04-01T06:56:06.770Z,8.98
2018-04-01T06:58:32.759Z,9.01
2018-04-01T07:00:58.716Z,8.89
2018-04-01T07:03:24.664Z,8.89
2018-04-01T07:05:50.626Z,8.82
2018-04-01T07:08:16.566Z,8.95
2018-04-01T07:10:42.522Z,8.80
2018-04-01T07:13:08.506Z,8.87
2018-04-01T07:15:34.466Z,8.89
2018-04-01T07:18:00.426Z,8.81
2018-04-01T07:20:26.364Z,8.60
2018-04-01T07:22:52.338Z,8.77
2018-04-01T07:25:18.302Z,8.88
2018-04-01T07:27:44.292Z,8.94
2018-04-01T07:30:10.252Z,8.79
2018-04-01T07:32:36.183Z,8.71
2018-04-01T07:35:02.143Z,8.90
2018-04-01T07:37:28.096Z,8.93
2018-04-01T07:39:54.070Z,8.84
2018-04-01T07:42:20.012Z,8.89
2018-04-01T07:44:45.982Z,8.92
2018-04-01T07:47:11.946Z,8.60
2018-04-01T07:49:37.914Z,8.58
2018-04-01T07:52:03.864Z,8.76
2018-04-01T07:54:29.849Z,8.77
2018-04-01T07:56:55.778Z,8.85
2018-04-01T07:59:21.735Z,8.72
2018-04-01T08:01:47.679Z,9.18
2018-04-01T08:04:13.643Z,8.82
2018-04-01T08:06:39.641Z,8.55
2018-04-01T08:09:05.550Z,8.76
2018-04-01T08:11:31.524Z,8.64
2018-04-01T08:13:57.442Z,8.95
2018-04-01T08:16:23.406Z,8.84
2018-04-01T08:18:49.352Z,8.78
2018-04-01T08:21:15.323Z,8.79
2018-04-01T08:23:41.275Z,8.50
2018-04-01T08:26:07.248Z,8.56
2018-04-01T08:28:33.209Z,8.71
2018-04-01T08:30:59.184Z,8.86
2018-04-01T08:33:25.122Z,8.96
2018-04-01T08:35:51.096Z,8.93
2018-04-01T08:38:17.036Z,9.03
2018-04-01T08:40:42.968Z,9.01
2018-04-01T08:43:08.914Z,8.98
2018-04-01T08:45:34.838Z,9.05
2018-04-01T08:48:00.756Z,9.12
2018-04-01T08:50:26.691Z,9.00
2018-04-01T08:52:52.834Z,8.92
2018-04-01T08:55:18.872Z,8.89
2018-04-01T08:57:44.838Z,8.62
2018-04-01T09:00:10.801Z,8.79
2018-04-01T09:02:36.740Z,8.82
2018-04-01T09:05:02.686Z,8.87
2018-04-01T09:07:28.616Z,8.55
2018-04-01T09:09:54.568Z,8.41
2018-04-01T09:12:20.515Z,8.28
2018-04-01T09:14:46.459Z,8.82
2018-04-01T09:17:12.417Z,9.01
2018-04-01T09:19:38.345Z,9.04
2018-04-01T09:22:04.272Z,9.58
2018-04-01T09:24:30.523Z,9.31
2018-04-01T09:26:56.465Z,8.81
2018-04-01T09:29:22.393Z,8.84
2018-04-01T09:31:48.319Z,8.86
2018-04-01T09:34:14.281Z,8.72
2018-04-01T09:36:40.197Z,8.84
2018-04-01T09:39:06.164Z,8.75
2018-04-01T09:41:32.100Z,8.78
2018-04-01T09:43:58.031Z,8.64
2018-04-01T09:46:23.997Z,8.64
2018-04-01T09:48:49.959Z,8.58
2018-04-01T09:51:15.941Z,8.51
2018-04-01T09:53:41.873Z,8.49
2018-04-01T09:56:07.792Z,8.53
2018-04-01T09:58:33.729Z,8.65
2018-04-01T10:00:59.701Z,8.73
2018-04-01T10:03:25.627Z,8.51
2018-04-01T10:05:51.802Z,8.37
2018-04-01T10:08:17.755Z,8.65
2018-04-01T10:10:43.699Z,8.68
2018-04-01T10:13:09.646Z,8.87
2018-04-01T10:15:35.622Z,8.78
2018-04-01T10:18:01.577Z,8.92
2018-04-01T10:20:27.514Z,9.00
2018-04-01T10:22:53.436Z,8.82
2018-04-01T10:25:19.377Z,8.46
2018-04-01T10:27:45.344Z,8.71
2018-04-01T10:30:11.321Z,8.62
2018-04-01T10:32:37.328Z,8.80
2018-04-01T10:35:03.237Z,8.55
2018-04-01T10:37:29.200Z,8.61
2018-04-01T10:39:55.133Z,8.54
2018-04-01T10:42:21.077Z,8.90
2018-04-01T10:44:47.009Z,8.85
2018-04-01T10:47:12.943Z,8.95
2018-04-01T10:49:38.889Z,8.97
2018-04-01T10:52:04.853Z,9.24
2018-04-01T10:54:30.844Z,9.04
2018-04-01T10:56:56.760Z,9.22
2018-04-01T10:59:23.011Z,8.83
2018-04-01T11:01:48.959Z,8.82
2018-04-01T11:04:14.916Z,9.00
2018-04-01T11:06:40.837Z,9.12
2018-04-01T11:09:06.754Z,9.14
2018-04-01T11:11:32.722Z,9.13
2018-04-01T11:13:58.668Z,9.13
2018-04-01T11:16:24.654Z,9.08
2018-04-01T11:18:50.580Z,8.76
2018-04-01T11:21:16.541Z,8.90
2018-04-01T11:23:42.477Z,8.90
2018-04-01T11:26:08.459Z,8.80
2018-04-01T11:28:34.376Z,8.73
2018-04-01T11:31:00.298Z,8.54
2018-04-01T11:33:26.242Z,8.80
2018-04-01T11:35:53.255Z,8.94
2018-04-01T11:38:19.294Z,8.88
2018-04-01T11:40:45.246Z,8.80
2018-04-01T11:43:11.196Z,9.00
2018-04-01T11:45:37.130Z,9.01
2018-04-01T11:48:03.063Z,8.91
2018-04-01T11:50:29.004Z,8.79
2018-04-01T11:52:54.954Z,8.63
2018-04-01T11:55:20.874Z,8.84
2018-04-01T11:57:46.794Z,8.78
2018-04-01T12:00:12.747Z,8.86
2018-04-01T12:02:38.719Z,8.93
2018-04-01T12:05:04.945Z,8.97
2018-04-01T12:07:30.862Z,8.97
2018-04-01T12:09:56.778Z,9.11
2018-04-01T12:12:22.735Z,8.88
2018-04-01T12:14:48.834Z,8.87
2018-04-01T12:17:15.031Z,9.05
2018-04-01T12:19:40.977Z,9.08
2018-04-01T12:22:06.924Z,8.98
2018-04-01T12:24:32.923Z,8.77
2018-04-01T12:26:58.888Z,9.19
2018-04-01T12:29:24.873Z,8.97
2018-04-01T12:31:51.212Z,8.87
2018-04-01T12:34:17.225Z,9.09
2018-04-01T12:36:43.151Z,9.06
2018-04-01T12:39:09.099Z,9.42
2018-04-01T12:41:35.066Z,9.26
2018-04-01T12:44:01.015Z,9.15
2018-04-01T12:46:26.952Z,9.35
2018-04-01T12:48:52.902Z,9.24
2018-04-01T12:51:18.828Z,9.02
2018-04-01T12:53:44.821Z,9.27
2018-04-01T12:56:11.874Z,9.34
2018-04-01T12:58:37.831Z,9.47
2018-04-01T13:01:03.809Z,9.47
2018-04-01T13:03:29.805Z,9.36
2018-04-01T13:05:55.845Z,9.22
2018-04-01T13:08:21.799Z,9.15
2018-04-01T13:10:47.748Z,9.40
2018-04-01T13:13:13.698Z,9.27
2018-04-01T13:15:39.627Z,9.28
2018-04-01T13:18:05.594Z,9.29
2018-04-01T13:20:31.549Z,9.49
2018-04-01T13:22:57.499Z,9.35
2018-04-01T13:25:23.417Z,9.01
2018-04-01T13:27:49.346Z,9.36
2018-04-01T13:30:15.271Z,9.41
2018-04-01T13:32:41.193Z,9.43
2018-04-01T13:35:07.165Z,9.31
2018-04-01T13:37:33.098Z,9.46
2018-04-01T13:39:59.063Z,9.41
2018-04-01T13:42:25.000Z,9.44
2018-04-01T13:44:50.917Z,9.35
2018-04-01T13:47:16.861Z,9.57
2018-04-01T13:49:42.810Z,9.41
2018-04-01T13:52:08.750Z,9.49
2018-04-01T13:54:34.698Z,9.36
2018-04-01T13:57:00.630Z,9.42
2018-04-01T13:59:26.653Z,9.14
2018-04-01T14:01:52.574Z,9.35
2018-04-01T14:04:18.528Z,9.42
2018-04-01T14:06:44.706Z,9.36
2018-04-01T14:09:10.647Z,9.38
2018-04-01T14:11:36.595Z,9.34
2018-04-01T14:14:02.523Z,9.68
2018-04-01T14:16:28.614Z,9.52
2018-04-01T14:18:54.532Z,9.36
2018-04-01T14:21:20.468Z,9.56
2018-04-01T14:23:46.388Z,9.68
2018-04-01T14:26:12.328Z,9.43
2018-04-01T14:28:38.262Z,9.39
2018-04-01T14:31:04.208Z,9.48
2018-04-01T14:33:30.138Z,9.70
2018-04-01T14:35:56.087Z,9.80
2018-04-01T14:38:22.034Z,9.77
2018-04-01T14:40:47.958Z,9.52
2018-04-01T14:43:13.918Z,9.69
2018-04-01T14:45:39.824Z,9.61
2018-04-01T14:48:05.880Z,9.57
2018-04-01T14:50:31.946Z,9.49
2018-04-01T14:52:57.942Z,9.45
2018-04-01T14:55:23.874Z,9.47
2018-04-01T14:57:49.888Z,9.41
2018-04-01T15:00:15.825Z,9.57
2018-04-01T15:02:41.766Z,9.57
2018-04-01T15:05:07.700Z,9.62
2018-04-01T15:07:33.667Z,9.50
2018-04-01T15:09:59.605Z,9.69
2018-04-01T15:12:25.595Z,9.81
2018-04-01T15:14:51.548Z,9.66
2018-04-01T15:17:17.468Z,9.48
2018-04-01T15:19:43.426Z,9.68
2018-04-01T15:22:09.341Z,9.46
2018-04-01T15:24:35.308Z,9.42
2018-04-01T15:27:01.261Z,9.26
2018-04-01T15:29:27.200Z,9.38
2018-04-01T15:31:53.179Z,9.65
2018-04-01T15:34:19.118Z,9.47
2018-04-01T15:36:45.092Z,9.33
2018-04-01T15:39:11.059Z,9.41
2018-04-01T15:41:37.010Z,9.61
2018-04-01T15:44:02.974Z,9.54
2018-04-01T15:46:28.930Z,9.33
2018-04-01T15:48:55.885Z,9.38
2018-04-01T15:51:22.021Z,9.32
2018-04-01T15:53:48.013Z,9.58
2018-04-01T15:56:13.953Z,9.56
2018-04-01T15:58:39.906Z,9.50
2018-04-01T16:01:05.833Z,9.44
2018-04-01T16:03:31.965Z,9.39
2018-04-01T16:05:57.935Z,9.43
2018-04-01T16:08:23.920Z,9.44
2018-04-01T16:10:49.883Z,9.17
2018-04-01T16:13:15.801Z,9.24
2018-04-01T16:15:41.733Z,9.32
2018-04-01T16:18:07.771Z,9.50
2018-04-01T16:20:33.692Z,9.41
2018-04-01T16:22:59.637Z,9.54
2018-04-01T16:25:25.563Z,9.34
2018-04-01T16:27:51.515Z,9.44
2018-04-01T16:30:17.451Z,9.53
2018-04-01T16:32:43.413Z,9.43
2018-04-01T16:35:09.362Z,9.45
2018-04-01T16:37:35.309Z,9.56
2018-04-01T16:40:01.281Z,9.61
2018-04-01T16:42:27.357Z,9.50
2018-04-01T16:44:53.287Z,9.57
2018-04-01T16:47:19.417Z,9.59
2018-04-01T16:49:45.352Z,9.18
2018-04-01T16:52:11.310Z,9.56
2018-04-01T16:54:37.240Z,9.45
2018-04-01T16:57:03.178Z,9.53
2018-04-01T16:59:29.163Z,9.33
2018-04-01T17:01:55.177Z,9.52
2018-04-01T17:04:21.138Z,9.45
2018-04-01T17:06:47.063Z,9.75
2018-04-01T17:09:13.054Z,9.53
2018-04-01T17:11:39.000Z,9.47
2018-04-01T17:14:04.922Z,9.54
2018-04-01T17:16:30.872Z,9.49
2018-04-01T17:18:56.838Z,9.60
2018-04-01T17:21:22.803Z,9.60
2018-04-01T17:23:48.958Z,9.44
2018-04-01T17:26:14.902Z,9.47
2018-04-01T17:28:40.825Z,9.44
2018-04-01T17:31:06.741Z,9.48
2018-04-01T17:33:32.686Z,9.38
2018-04-01T17:35:58.640Z,9.35
2018-04-01T17:38:24.608Z,9.09
2018-04-01T17:40:50.575Z,9.39
2018-04-01T17:43:16.496Z,9.39
2018-04-01T17:45:42.466Z,9.49
2018-04-01T17:48:08.502Z,9.28
2018-04-01T17:50:34.432Z,9.48
2018-04-01T17:53:00.362Z,9.30
2018-04-01T17:55:26.275Z,9.21
2018-04-01T17:57:52.189Z,9.28
2018-04-01T18:00:18.133Z,9.36
2018-04-01T18:02:44.078Z,9.08
2018-04-01T18:05:10.024Z,9.21
2018-04-01T18:07:35.970Z,9.13
2018-04-01T18:10:01.926Z,9.08
2018-04-01T18:12:27.940Z,9.22
2018-04-01T18:14:53.866Z,9.22
2018-04-01T18:17:19.803Z,9.34
2018-04-01T18:19:45.765Z,9.24
2018-04-01T18:22:11.694Z,9.15
2018-04-01T18:24:37.616Z,9.23
2018-04-01T18:27:04.521Z,9.29
2018-04-01T18:29:30.462Z,9.11
2018-04-01T18:31:56.430Z,9.08
2018-04-01T18:34:22.384Z,9.14
2018-04-01T18:36:48.310Z,9.28
2018-04-01T18:39:14.367Z,9.24
2018-04-01T18:41:40.307Z,9.19
2018-04-01T18:44:06.256Z,9.17
2018-04-01T18:46:32.196Z,8.96
2018-04-01T18:48:58.130Z,9.05
2018-04-01T18:51:24.049Z,9.22
2018-04-01T18:53:50.001Z,9.17
2018-04-01T18:56:15.938Z,9.19
2018-04-01T18:58:41.876Z,9.06
2018-04-01T19:01:07.916Z,9.15
2018-04-01T19:03:33.816Z,9.18
2018-04-01T19:05:59.759Z,9.12
2018-04-01T19:08:25.708Z,9.15
2018-04-01T19:10:51.637Z,9.00
2018-04-01T19:13:17.582Z,9.01
2018-04-01T19:15:43.518Z,8.99
2018-04-01T19:18:09.438Z,8.91
2018-04-01T19:20:35.360Z,9.07
2018-04-01T19:23:01.279Z,9.09
2018-04-01T19:25:27.194Z,9.07
2018-04-01T19:27:53.114Z,9.08
2018-04-01T19:30:19.060Z,9.29
2018-04-01T19:32:45.007Z,9.31
2018-04-01T19:35:10.935Z,9.14
2018-04-01T19:37:36.885Z,9.17
2018-04-01T19:40:02.897Z,9.26
2018-04-01T19:42:28.754Z,9.23
2018-04-01T19:44:54.692Z,9.04
2018-04-01T19:47:20.645Z,8.90
2018-04-01T19:49:46.609Z,9.17
2018-04-01T19:52:12.547Z,9.22
2018-04-01T19:54:38.592Z,9.06
2018-04-01T19:57:04.635Z,9.07
2018-04-01T19:59:30.541Z,8.90
2018-04-01T20:01:56.502Z,9.05
2018-04-01T20:04:22.470Z,8.87
2018-04-01T20:06:48.406Z,9.11
2018-04-01T20:09:14.345Z,8.93
2018-04-01T20:11:40.534Z,9.02
2018-04-01T20:14:06.547Z,9.22
2018-04-01T20:16:32.453Z,9.10
2018-04-01T20:18:58.391Z,8.99
2018-04-01T20:21:24.415Z,9.03
2018-04-01T20:23:50.440Z,9.21
2018-04-01T20:26:16.373Z,9.11
2018-04-01T20:28:42.313Z,9.20
2018-04-01T20:31:08.251Z,8.97
2018-04-01T20:33:34.197Z,8.86
2018-04-01T20:36:00.149Z,8.98
2018-04-01T20:38:26.101Z,8.93
2018-04-01T20:40:52.099Z,9.22
2018-04-01T20:43:18.018Z,9.34
2018-04-01T20:45:43.991Z,9.21
2018-04-01T20:48:09.934Z,9.26
2018-04-01T20:50:35.867Z,9.23
2018-04-01T20:53:01.795Z,9.18
2018-04-01T20:55:27.745Z,9.28
2018-04-01T20:57:53.686Z,9.25
2018-04-01T21:00:19.607Z,9.28
2018-04-01T21:02:45.554Z,9.23
2018-04-01T21:05:11.493Z,9.06
2018-04-01T21:07:37.483Z,9.03
2018-04-01T21:10:03.408Z,8.99
2018-04-01T21:12:29.363Z,9.12
2018-04-01T21:14:55.298Z,9.19
2018-04-01T21:17:21.258Z,9.09
2018-04-01T21:19:47.192Z,9.08
2018-04-01T21:22:13.139Z,8.96
2018-04-01T21:24:39.133Z,8.95
2018-04-01T21:27:05.060Z,9.13
2018-04-01T21:29:30.982Z,8.99
2018-04-01T21:31:56.934Z,8.84
2018-04-01T21:34:22.902Z,9.06
2018-04-01T21:36:48.854Z,9.14
2018-04-01T21:39:14.850Z,9.12
2018-04-01T21:41:40.796Z,9.14
2018-04-01T21:44:06.754Z,9.08
2018-04-01T21:46:32.698Z,9.04
2018-04-01T21:48:58.632Z,9.08
2018-04-01T21:51:24.580Z,8.92
2018-04-01T21:53:50.496Z,8.92
2018-04-01T21:56:16.448Z,8.63
2018-04-01T21:58:42.372Z,8.87
2018-04-01T22:01:08.326Z,8.85
2018-04-01T22:03:34.266Z,8.88
2018-04-01T22:06:00.197Z,8.91
2018-04-01T22:08:26.142Z,9.07
2018-04-01T22:10:52.078Z,8.98
2018-04-01T22:13:18.085Z,9.05
2018-04-01T22:15:44.026Z,8.86
2018-04-01T22:18:10.259Z,9.03
2018-04-01T22:20:36.179Z,8.89
2018-04-01T22:23:02.129Z,8.78
2018-04-01T22:25:28.085Z,8.97
2018-04-01T22:27:54.002Z,8.93
2018-04-01T22:30:19.986Z,9.06
2018-04-01T22:32:45.958Z,9.08
2018-04-01T22:35:12.152Z,9.09
2018-04-01T22:37:38.065Z,9.09
2018-04-01T22:40:03.991Z,8.97
2018-04-01T22:42:29.922Z,8.74
2018-04-01T22:44:55.871Z,9.04
2018-04-01T22:47:21.859Z,8.70
2018-04-01T22:49:47.786Z,8.89
2018-04-01T22:52:13.730Z,8.96
2018-04-01T22:54:39.672Z,8.70
2018-04-01T22:57:05.630Z,8.70
2018-04-01T22:59:31.571Z,8.57
2018-04-01T23:01:57.713Z,8.80
2018-04-01T23:04:23.658Z,9.16
2018-04-01T23:06:49.589Z,8.95
2018-04-01T23:09:15.539Z,8.89
2018-04-01T23:11:41.463Z,8.81
2018-04-01T23:14:07.392Z,8.96
2018-04-01T23:16:33.316Z,8.95
2018-04-01T23:18:59.559Z,8.68
2018-04-01T23:21:25.489Z,8.84
2018-04-01T23:23:51.415Z,8.84
2018-04-01T23:26:17.349Z,8.65
2018-04-01T23:28:43.312Z,8.90
2018-04-01T23:31:09.244Z,8.89
2018-04-01T23:33:35.191Z,8.76
2018-04-01T23:36:01.129Z,8.64
2018-04-01T23:38:27.077Z,8.57
2018-04-01T23:40:53.015Z,8.79
2018-04-01T23:43:18.961Z,8.72
2018-04-01T23:45:45.137Z,8.76
2018-04-01T23:48:11.082Z,8.71
2018-04-01T23:50:37.007Z,8.75
2018-04-01T23:53:02.932Z,8.77
2018-04-01T23:55:28.877Z,8.38
2018-04-01T23:57:55.034Z,8.56
